Data for 04/07/2006

Time Sea-Level Adjusted Pressure Absolute Pressure Temperature Relative Humidity Dew Point   
(mb) (inHg) (mb) (inHg) (C) (F) (%) (C) (F)
00:05 1016 30 846 24.98 3.3 38 96 2.7 36.9
00:10 1016 30 846 24.98 3.2 37.8 96 2.6 36.8
00:15 1016 30 846 24.98 3.2 37.7 96 2.7 36.8
00:20 1017 30.03 846 24.98 3.2 37.8 96 2.7 36.9
00:25 1017 30.03 846 24.98 3.1 37.6 97 2.6 36.7
00:30 1017 30.03 846 24.98 3.1 37.5 97 2.6 36.8
00:35 1017 30.03 846 24.98 3 37.5 97 2.6 36.7
00:40 1017 30.03 846 24.98 3.1 37.6 97 2.7 36.8
00:45 1017 30.03 846 24.98 3 37.4 97 2.6 36.7
00:50 1017 30.03 846 24.98 3.2 37.7 97 2.7 36.9
00:55 1017 30.03 846 24.98 3.3 38 96 2.8 37
01:00 1017 30.03 846 24.98 3.4 38.1 96 2.8 37.1
01:05 1017 30.03 846 24.98 3.4 38.1 96 2.8 37.1
01:10 1017 30.03 846 24.98 3.5 38.3 96 2.9 37.2
01:15 1017 30.03 846 24.98 3.5 38.3 96 3 37.3
01:20 1017 30.03 846 24.98 3.5 38.3 96 3 37.3
01:25 1017 30.03 846 24.98 3.5 38.3 96 3 37.3
01:30 1017 30.03 847 25.01 3.5 38.3 96 3 37.3
01:35 1017 30.03 847 25.01 3.6 38.5 96 3.1 37.5
01:40 1018 30.06 847 25.01 3.7 38.7 96 3.1 37.5
01:45 1018 30.06 847 25.01 3.7 38.7 95 3 37.4
01:50 1018 30.06 847 25.01 3.6 38.6 95 2.9 37.1
01:55 1018 30.06 847 25.01 3.6 38.5 94 2.8 37
02:00 1018 30.06 847 25.01 3.6 38.6 94 2.8 37
02:05 1018 30.06 847 25.01 3.6 38.6 93 2.7 36.8
02:10 1018 30.06 847 25.01 3.6 38.6 94 2.8 37
02:15 1018 30.06 847 25.01 3.7 38.6 94 2.7 36.9
02:20 1018 30.06 847 25.01 3.7 38.6 93 2.7 36.8
02:25 1018 30.06 847 25.01 3.6 38.4 94 2.7 36.8
02:30 1018 30.06 847 25.01 3.7 38.7 93 2.6 36.8
02:35 1018 30.06 847 25.01 3.7 38.6 93 2.6 36.7
02:40 1018 30.06 847 25.01 3.4 38.1 94 2.4 36.4
02:45 1018 30.06 847 25.01 3.1 37.6 95 2.4 36.2
02:50 1018 30.06 847 25.01 3.1 37.5 95 2.3 36.1
02:55 1018 30.06 848 25.04 3.1 37.5 95 2.3 36.1
03:00 1018 30.06 848 25.04 3.1 37.5 95 2.3 36.2
03:05 1018 30.06 848 25.04 3.1 37.6 95 2.4 36.3
03:10 1019 30.09 848 25.04 3.1 37.6 95 2.5 36.4
03:15 1019 30.09 848 25.04 3 37.5 96 2.4 36.4
03:20 1019 30.09 848 25.04 2.9 37.2 96 2.4 36.3
03:25 1019 30.09 848 25.04 2.7 36.9 97 2.2 36
03:30 1019 30.09 848 25.04 2.4 36.3 96 1.8 35.3
03:35 1019 30.09 848 25.04 2.2 35.9 97 1.7 35
03:40 1019 30.09 848 25.04 2.1 35.7 97 1.6 34.9
03:45 1019 30.09 848 25.04 2.1 35.8 97 1.6 34.9
03:50 1019 30.09 848 25.04 2 35.6 97 1.6 34.8
03:55 1019 30.09 848 25.04 2 35.6 97 1.6 34.8
04:00 1019 30.09 848 25.04 2 35.5 97 1.5 34.8
04:05 1019 30.09 848 25.04 1.9 35.5 97 1.5 34.7
04:10 1019 30.09 848 25.04 1.9 35.4 97 1.5 34.7
04:15 1019 30.09 848 25.04 1.9 35.4 97 1.5 34.7
04:20 1019 30.09 848 25.04 1.9 35.3 97 1.4 34.6
04:25 1019 30.09 848 25.04 1.9 35.4 98 1.5 34.7
04:30 1019 30.09 848 25.04 1.9 35.4 97 1.5 34.8
04:35 1019 30.09 848 25.04 2 35.6 98 1.6 34.9
04:40 1019 30.09 848 25.04 1.9 35.4 98 1.5 34.8
04:45 1019 30.09 848 25.04 1.9 35.3 98 1.5 34.8
04:50 1019 30.09 848 25.04 1.9 35.4 98 1.6 34.9
04:55 1019 30.09 848 25.04 1.9 35.4 98 1.6 34.9
05:00 1019 30.09 848 25.04 1.8 35.3 98 1.5 34.7
05:05 1019 30.09 848 25.04 1.8 35.2 98 1.5 34.7
05:10 1019 30.09 848 25.04 1.8 35.2 98 1.5 34.7
05:15 1019 30.09 848 25.04 1.8 35.2 98 1.5 34.7
05:20 1019 30.09 848 25.04 1.8 35.3 98 1.5 34.7
05:25 1019 30.09 848 25.04 1.9 35.3 98 1.5 34.7
05:30 1019 30.09 848 25.04 1.8 35.3 98 1.5 34.8
05:35 1019 30.09 848 25.04 1.9 35.4 98 1.6 34.8
05:40 1019 30.09 848 25.04 1.9 35.4 98 1.6 34.9
05:45 1019 30.09 848 25.04 1.8 35.3 98 1.5 34.7
05:50 1019 30.09 848 25.04 1.8 35.2 98 1.5 34.7
05:55 1019 30.09 848 25.04 1.8 35.3 98 1.5 34.7
06:00 1019 30.09 848 25.04 1.8 35.3 98 1.5 34.8
06:05 1019 30.09 848 25.04 1.8 35.3 98 1.5 34.7
06:10 1019 30.09 848 25.04 1.8 35.3 98 1.5 34.8
06:15 1019 30.09 848 25.04 1.9 35.4 98 1.5 34.8
06:20 1019 30.09 848 25.04 1.8 35.3 98 1.5 34.7
06:25 1019 30.09 848 25.04 1.9 35.4 98 1.6 34.8
06:30 1019 30.09 848 25.04 1.8 35.3 98 1.5 34.8
06:35 1019 30.09 848 25.04 1.9 35.3 98 1.5 34.8
06:40 1019 30.09 848 25.04 1.9 35.4 98 1.6 34.9
06:45 1019 30.09 848 25.04 1.9 35.4 98 1.6 34.9
06:50 1019 30.09 848 25.04 1.9 35.4 98 1.6 34.9
06:55 1019 30.09 848 25.04 1.9 35.4 98 1.6 34.8
07:00 1019 30.09 848 25.04 1.9 35.3 97 1.5 34.6
07:05 1019 30.09 848 25.04 1.9 35.5 97 1.5 34.7
07:10 1019 30.09 849 25.07 1.9 35.3 96 1.3 34.4
07:15 1019 30.09 849 25.07 1.9 35.4 96 1.4 34.5
07:20 1019 30.09 849 25.07 1.9 35.4 96 1.3 34.4
07:25 1019 30.09 849 25.07 1.9 35.5 97 1.4 34.6
07:30 1020 30.12 849 25.07 1.9 35.5 96 1.4 34.5
07:35 1020 30.12 849 25.07 2 35.6 96 1.4 34.6
07:40 1020 30.12 849 25.07 2 35.6 96 1.4 34.5
07:45 1020 30.12 849 25.07 2 35.7 96 1.4 34.6
07:50 1020 30.12 849 25.07 2.1 35.7 96 1.5 34.6
07:55 1020 30.12 849 25.07 2.1 35.8 96 1.5 34.7
08:00 1020 30.12 849 25.07 2.1 35.8 96 1.5 34.7
08:05 1020 30.12 849 25.07 2.1 35.8 95 1.4 34.6
08:10 1020 30.12 849 25.07 2.1 35.8 95 1.5 34.6
08:15 1020 30.12 849 25.07 2.2 35.9 96 1.6 34.8
08:20 1020 30.12 849 25.07 2.3 36.2 95 1.6 34.9
08:25 1020 30.12 849 25.07 2.5 36.5 95 1.8 35.2
08:30 1020 30.12 849 25.07 2.8 37.1 95 2.1 35.8
08:35 1020 30.12 849 25.07 3.2 37.8 94 2.3 36.1
08:40 1020 30.12 849 25.07 3.5 38.2 92 2.3 36.2
08:45 1020 30.12 849 25.07 3.5 38.3 92 2.4 36.3
08:50 1020 30.12 849 25.07 3.6 38.5 92 2.4 36.4
08:55 1020 30.12 849 25.07 4 39.1 91 2.6 36.6
09:00 1020 30.12 849 25.07 4.2 39.5 89 2.6 36.6
09:05 1020 30.12 849 25.07 4.2 39.6 90 2.7 36.8
09:10 1020 30.12 849 25.07 4.3 39.8 87 2.4 36.3
09:15 1020 30.12 849 25.07 4.1 39.5 88 2.4 36.3
09:20 1020 30.12 849 25.07 4.3 39.8 88 2.4 36.4
09:25 1020 30.12 849 25.07 4.4 39.8 87 2.5 36.4
09:30 1020 30.12 849 25.07 4.5 40.1 87 2.6 36.6
09:35 1020 30.12 849 25.07 4.8 40.6 85 2.5 36.4
09:40 1020 30.12 849 25.07 4.9 40.8 87 2.9 37.2
09:45 1020 30.12 849 25.07 5.4 41.6 85 3 37.5
09:50 1020 30.12 849 25.07 5.5 41.9 83 2.8 37
09:55 1020 30.12 849 25.07 5.6 42.1 83 2.9 37.2
10:00 1020 30.12 849 25.07 5.7 42.3 80 2.6 36.7
10:05 1020 30.12 849 25.07 5.8 42.5 82 3 37.3
10:10 1020 30.12 849 25.07 6.2 43.1 82 3.3 37.9
10:15 1020 30.12 849 25.07 6.1 42.9 75 2 35.7
10:20 1020 30.12 849 25.07 6.1 43 81 3 37.4
10:25 1020 30.12 849 25.07 5.8 42.5 78 2.3 36.2
10:30 1020 30.12 849 25.07 6.2 43.1 78 2.6 36.7
10:35 1020 30.12 849 25.07 6.5 43.8 79 3.2 37.8
10:40 1020 30.12 849 25.07 7 44.5 74 2.7 36.8
10:45 1020 30.12 849 25.07 7 44.5 75 2.9 37.3
10:50 1020 30.12 849 25.07 6.9 44.4 73 2.5 36.5
10:55 1020 30.12 849 25.07 7.1 44.8 73 2.7 36.8
11:00 1020 30.12 849 25.07 7.3 45.2 73 2.9 37.2
11:05 1020 30.12 849 25.07 7.4 45.3 73 2.8 37
11:10 1020 30.12 849 25.07 7.3 45.2 72 2.6 36.7
11:15 1020 30.12 849 25.07 7.3 45.1 70 2.3 36.1
11:20 1020 30.12 849 25.07 7.7 45.8 70 2.5 36.5
11:25 1020 30.12 849 25.07 8.3 46.9 66 2.4 36.2
11:30 1020 30.12 849 25.07 7.9 46.1 67 2.2 35.9
11:35 1020 30.12 849 25.07 7.3 45.2 70 2.2 36
11:40 1020 30.12 849 25.07 7.8 46 67 2 35.6
11:45 1020 30.12 849 25.07 7.8 46.1 67 2.1 35.7
11:50 1020 30.12 849 25.07 7.7 45.9 65 1.6 34.8
11:55 1020 30.12 849 25.07 7.7 45.8 65 1.5 34.6
12:00 1020 30.12 849 25.07 8 46.3 63 1.4 34.5
12:05 1020 30.12 849 25.07 8 46.4 63 1.5 34.7
12:10 1020 30.12 849 25.07 8.2 46.7 63 1.6 34.8
12:15 1020 30.12 849 25.07 8.1 46.6 65 1.9 35.5
12:20 1020 30.12 849 25.07 8.1 46.5 66 2.1 35.8
12:25 1020 30.12 849 25.07 7.9 46.1 64 1.4 34.6
12:30 1020 30.12 849 25.07 8 46.3 65 1.8 35.2
12:35 1020 30.12 849 25.07 8.3 47 64 2 35.6
12:40 1020 30.12 849 25.07 8.6 47.5 63 2 35.6
12:45 1020 30.12 849 25.07 8.4 47 64 2 35.5
12:50 1020 30.12 849 25.07 8.1 46.5 67 2.4 36.3
12:55 1020 30.12 849 25.07 8.3 46.9 65 2.1 35.7
13:00 1019 30.09 849 25.07 8.2 46.7 66 2.3 36.1
13:05 1019 30.09 849 25.07 8.4 47.2 65 2.3 36.1
13:10 1019 30.09 849 25.07 8.1 46.6 67 2.4 36.3
13:15 1019 30.09 849 25.07 8.4 47.2 64 2 35.5
13:20 1019 30.09 849 25.07 8.3 46.9 64 2 35.6
13:25 1019 30.09 849 25.07 9 48.1 62 2.1 35.9
13:30 1019 30.09 849 25.07 8.8 47.8 62 2 35.6
13:35 1019 30.09 849 25.07 8.8 47.8 61 1.8 35.3
13:40 1019 30.09 849 25.07 9.5 49 59 1.8 35.2
13:45 1019 30.09 849 25.07 9.4 48.8 58 1.6 35
13:50 1019 30.09 849 25.07 9.7 49.4 57 1.7 35.1
13:55 1019 30.09 849 25.07 10.3 50.5 54 1.5 34.7
14:00 1019 30.09 848 25.04 10 50.1 55 1.5 34.6
14:05 1019 30.09 848 25.04 10.2 50.3 54 1.3 34.3
14:10 1019 30.09 848 25.04 10.5 51 54 1.8 35.2
14:15 1019 30.09 848 25.04 10.1 50.1 51 0.5 32.9
14:20 1019 30.09 848 25.04 10.1 50.1 50 0.1 32.2
14:25 1019 30.09 848 25.04 10.5 50.9 48 0.1 32.2
14:30 1019 30.09 848 25.04 10.7 51.3 49 0.4 32.7
14:35 1019 30.09 848 25.04 10 50 51 0.4 32.8
14:40 1019 30.09 848 25.04 9.9 49.7 53 0.7 33.3
14:45 1019 30.09 848 25.04 9.9 49.7 54 1 33.9
14:50 1019 30.09 848 25.04 10.2 50.4 54 1.4 34.5
14:55 1019 30.09 848 25.04 10.3 50.5 55 1.7 35.1
15:00 1019 30.09 848 25.04 10.1 50.1 55 1.5 34.7
15:05 1019 30.09 848 25.04 9.9 49.9 57 1.8 35.3
15:10 1019 30.09 848 25.04 9.9 49.8 55 1.4 34.5
15:15 1019 30.09 848 25.04 10 49.9 53 0.8 33.5
15:20 1019 30.09 848 25.04 9.8 49.7 59 2.3 36.1
15:25 1019 30.09 848 25.04 9.7 49.5 62 2.8 37
15:30 1019 30.09 848 25.04 9.6 49.3 61 2.4 36.3
15:35 1019 30.09 848 25.04 9.7 49.5 60 2.3 36.2
15:40 1019 30.09 848 25.04 9.7 49.5 63 3 37.4
15:45 1019 30.09 848 25.04 9.7 49.4 62 2.7 36.9
15:50 1019 30.09 848 25.04 10.1 50.2 57 2.1 35.9
15:55 1019 30.09 848 25.04 10 50 62 3 37.4
16:00 1019 30.09 848 25.04 9.4 49 65 3.1 37.7
16:05 1019 30.09 848 25.04 9.4 48.9 65 3.3 37.9
16:10 1019 30.09 848 25.04 9.4 49 64 3.1 37.5
16:15 1019 30.09 848 25.04 9.4 48.9 66 3.5 38.2
16:20 1019 30.09 848 25.04 9.5 49.1 67 3.6 38.5
16:25 1019 30.09 848 25.04 9.7 49.5 64 3.2 37.8
16:30 1019 30.09 848 25.04 9.9 49.8 64 3.5 38.4
16:35 1019 30.09 848 25.04 9.5 49.1 67 3.7 38.6
16:40 1019 30.09 848 25.04 9.8 49.6 64 3.4 38.2
16:45 1019 30.09 848 25.04 10.2 50.3 65 3.9 39.1
16:50 1019 30.09 848 25.04 9.5 49.2 65 3.4 38.1
16:55 1019 30.09 848 25.04 9.5 49.1 64 3 37.4
17:00 1019 30.09 848 25.04 9.6 49.4 64 3.3 37.9
17:05 1019 30.09 848 25.04 9.9 49.9 66 4 39.2
17:10 1019 30.09 848 25.04 9.6 49.2 67 3.8 38.9
17:15 1019 30.09 848 25.04 9.5 49.1 67 3.7 38.6
17:20 1019 30.09 848 25.04 9.4 49 67 3.7 38.7
17:25 1018 30.06 848 25.04 9.5 49.1 66 3.5 38.2
17:30 1018 30.06 848 25.04 9.5 49.2 65 3.3 38
17:35 1018 30.06 848 25.04 9.5 49.1 66 3.6 38.4
17:40 1018 30.06 848 25.04 9.5 49 67 3.8 38.8
17:45 1018 30.06 848 25.04 9.4 48.8 67 3.6 38.6
17:50 1018 30.06 848 25.04 9.2 48.6 69 3.9 39
17:55 1018 30.06 848 25.04 9.2 48.5 70 4.1 39.3
18:00 1018 30.06 847 25.01 9 48.1 70 3.7 38.7
18:05 1018 30.06 847 25.01 8.8 47.8 70 3.7 38.6
18:10 1018 30.06 847 25.01 9.1 48.3 69 3.8 38.9
18:15 1018 30.06 847 25.01 9.3 48.8 67 3.5 38.4
18:20 1018 30.06 847 25.01 9.2 48.5 67 3.3 38
18:25 1018 30.06 847 25.01 9 48.3 66 3 37.4
18:30 1018 30.06 847 25.01 9 48.1 67 3.2 37.7
18:35 1018 30.06 847 25.01 8.9 48 68 3.3 38
18:40 1018 30.06 847 25.01 8.8 47.8 69 3.4 38.2
18:45 1018 30.06 847 25.01 8.6 47.5 69 3.3 38
18:50 1018 30.06 847 25.01 8.6 47.4 70 3.4 38
18:55 1018 30.06 847 25.01 8.5 47.3 70 3.4 38.2
19:00 1018 30.06 847 25.01 8.4 47.1 71 3.4 38.1
19:05 1018 30.06 847 25.01 8.4 47.2 71 3.4 38.2
19:10 1018 30.06 847 25.01 8.5 47.3 71 3.5 38.4
19:15 1018 30.06 847 25.01 8.3 47 72 3.6 38.4
19:20 1018 30.06 847 25.01 8.2 46.8 73 3.7 38.6
19:25 1018 30.06 847 25.01 8.1 46.6 73 3.7 38.6
19:30 1018 30.06 847 25.01 8 46.4 73 3.5 38.3
19:35 1018 30.06 847 25.01 7.8 46.1 74 3.5 38.2
19:40 1018 30.06 847 25.01 7.7 45.9 75 3.6 38.4
19:45 1018 30.06 847 25.01 7.5 45.6 75 3.4 38.1
19:50 1018 30.06 847 25.01 7.4 45.4 76 3.4 38.1
19:55 1018 30.06 847 25.01 7.3 45.1 76 3.4 38.1
20:00 1018 30.06 847 25.01 7.2 45 76 3.3 38
20:05 1018 30.06 847 25.01 7.1 44.8 76 3.2 37.8
20:10 1018 30.06 847 25.01 7.1 44.7 76 3.1 37.6
20:15 1018 30.06 847 25.01 7 44.6 76 3.1 37.7
20:20 1018 30.06 847 25.01 6.9 44.4 77 3.2 37.7
20:25 1018 30.06 847 25.01 6.8 44.2 78 3.1 37.6
20:30 1018 30.06 847 25.01 6.6 43.9 78 3.1 37.5
20:35 1018 30.06 847 25.01 6.6 43.8 78 3.1 37.5
20:40 1018 30.06 847 25.01 6.5 43.6 79 3 37.5
20:45 1018 30.06 847 25.01 6.4 43.4 79 3 37.3
20:50 1018 30.06 847 25.01 6.3 43.4 79 2.9 37.2
20:55 1018 30.06 847 25.01 6.3 43.3 79 2.9 37.2
21:00 1018 30.06 847 25.01 6.2 43.2 79 2.9 37.1
21:05 1018 30.06 847 25.01 6.1 43 79 2.8 37
21:10 1018 30.06 847 25.01 6.1 42.9 79 2.8 37
21:15 1018 30.06 847 25.01 6 42.9 79 2.8 37
21:20 1017 30.03 847 25.01 6 42.8 80 2.7 36.9
21:25 1018 30.06 847 25.01 5.9 42.7 80 2.7 36.9
21:30 1018 30.06 847 25.01 5.9 42.6 80 2.7 36.9
21:35 1018 30.06 847 25.01 5.8 42.4 80 2.7 36.9
21:40 1017 30.03 847 25.01 5.7 42.2 81 2.6 36.7
21:45 1017 30.03 847 25.01 5.6 42.2 81 2.6 36.7
21:50 1017 30.03 847 25.01 5.6 42 81 2.6 36.6
21:55 1017 30.03 847 25.01 5.5 41.9 81 2.5 36.4
22:00 1017 30.03 847 25.01 5.6 42.1 80 2.4 36.4
22:05 1017 30.03 847 25.01 5.7 42.2 80 2.5 36.5
22:10 1017 30.03 846 24.98 5.6 42.1 80 2.4 36.4
22:15 1017 30.03 846 24.98 5.6 42.1 80 2.4 36.4
22:20 1017 30.03 846 24.98 5.5 41.9 81 2.5 36.4
22:25 1017 30.03 846 24.98 5.3 41.5 82 2.4 36.3
22:30 1017 30.03 846 24.98 5.2 41.4 83 2.5 36.5
22:35 1017 30.03 846 24.98 5.3 41.6 82 2.4 36.4
22:40 1017 30.03 846 24.98 5.3 41.6 82 2.5 36.5
22:45 1017 30.03 846 24.98 5.2 41.4 82 2.4 36.3
22:50 1017 30.03 846 24.98 5.2 41.3 82 2.3 36.2
22:55 1017 30.03 846 24.98 5.1 41.2 82 2.4 36.3
23:00 1017 30.03 846 24.98 5.1 41.2 82 2.4 36.3
23:05 1017 30.03 846 24.98 5.1 41.2 82 2.4 36.2
23:10 1017 30.03 846 24.98 5 41 83 2.3 36.2
23:15 1017 30.03 846 24.98 4.9 40.8 83 2.2 36
23:20 1017 30.03 846 24.98 4.8 40.7 83 2.2 36
23:25 1017 30.03 846 24.98 4.8 40.7 82 2.1 35.8
23:30 1017 30.03 846 24.98 4.9 40.9 82 2.2 35.9
23:35 1017 30.03 846 24.98 5 41 82 2.2 35.9
23:40 1017 30.03 846 24.98 5 40.9 82 2.2 36
23:45 1017 30.03 846 24.98 5 41 82 2.2 35.9
23:50 1017 30.03 846 24.98 5.1 41.2 82 2.2 35.9
23:55 1017 30.03 846 24.98 5 41 82 2.2 35.9
24:00 1017 30.03 846 24.98 5 40.9 82 2.1 35.9